Terminal Aerodrome Forecast
Issued by NWS Brownsville, TX

Home | Current Version | Previous Version | Text Only | Print | Product List | Glossary On
Versions: 1 2 3 4 5 6 7 8 9 10 11 12 13 14 15 16 17 18 19 20
485
FTUS44 KBRO 301736
TAFMFE
TAF
KMFE 301736Z 3018/0118 02008KT P6SM SCT040
     FM302100 07009KT P6SM FEW050
     FM010000 11010KT P6SM FEW020
     FM010400 12005KT 5SM BR BKN015
     FM010600 12004KT 3SM BR OVC008
     FM011500 12008KT 5SM HZ BKN025=

USA.gov is the U.S. government's official web portal to all federal, state and local government web resources and services.